createdAt,value
2022-12-03T00:01:18.885Z,101833.90
2022-12-03T00:04:00.862Z,101830.25
2022-12-03T00:06:34.700Z,101829.30
2022-12-03T00:09:07.332Z,101831.70
2022-12-03T00:11:39.417Z,101830.70
2022-12-03T00:14:11.361Z,101832.20
2022-12-03T00:16:43.262Z,101831.22
2022-12-03T00:19:15.166Z,101833.02
2022-12-03T00:21:47.590Z,101831.41
2022-12-03T00:24:19.407Z,101831.43
2022-12-03T00:26:51.314Z,101829.45
2022-12-03T00:29:23.137Z,101828.80
2022-12-03T00:31:54.912Z,101827.86
2022-12-03T00:34:26.751Z,101829.64
2022-12-03T00:36:58.677Z,101832.50
2022-12-03T00:39:30.489Z,101830.17
2022-12-03T00:42:02.531Z,101830.95
2022-12-03T00:44:34.436Z,101830.36
2022-12-03T00:47:06.468Z,101830.67
2022-12-03T00:49:38.571Z,101829.16
2022-12-03T00:52:10.583Z,101825.67
2022-12-03T00:54:42.438Z,101821.53
2022-12-03T00:57:14.320Z,101821.08
2022-12-03T00:59:46.241Z,101816.98
2022-12-03T01:02:18.193Z,101817.35
2022-12-03T01:04:50.279Z,101821.71
2022-12-03T01:07:22.266Z,101822.54
2022-12-03T01:09:54.053Z,101821.73
2022-12-03T01:12:26.237Z,101820.34
2022-12-03T01:14:58.333Z,101822.16
2022-12-03T01:17:30.290Z,101822.88
2022-12-03T01:20:02.382Z,101822.20
2022-12-03T01:22:34.251Z,101816.02
2022-12-03T01:25:06.572Z,101816.05
2022-12-03T01:27:38.364Z,101813.31
2022-12-03T01:30:15.489Z,101817.94
2022-12-03T01:32:47.483Z,101820.60
2022-12-03T01:35:19.454Z,101815.59
2022-12-03T01:37:51.303Z,101815.93
2022-12-03T01:40:24.111Z,101819.89
2022-12-03T01:42:56.073Z,101821.77
2022-12-03T01:45:28.295Z,101819.68
2022-12-03T01:48:00.889Z,101818.41
2022-12-03T01:50:34.996Z,101815.23
2022-12-03T01:53:07.037Z,101814.85
2022-12-03T01:55:39.642Z,101810.48
2022-12-03T01:58:16.556Z,101804.19
2022-12-03T02:00:48.525Z,101806.19
2022-12-03T02:03:23.604Z,101797.84
2022-12-03T02:05:57.488Z,101799.36
2022-12-03T02:08:34.717Z,101797.98
2022-12-03T02:11:13.260Z,101797.77
2022-12-03T02:13:46.078Z,101799.80
2022-12-03T02:16:18.046Z,101797.56
2022-12-03T02:18:50.228Z,101796.39
2022-12-03T02:21:29.092Z,101796.57
2022-12-03T02:24:11.698Z,101797.94
2022-12-03T02:26:43.586Z,101797.06
2022-12-03T02:29:15.619Z,101791.73
2022-12-03T02:31:47.626Z,101798.76
2022-12-03T02:34:36.828Z,101793.84
2022-12-03T02:37:12.694Z,101797.77
2022-12-03T02:39:48.841Z,101800.55
2022-12-03T02:42:37.900Z,101803.89
2022-12-03T02:45:16.345Z,101801.48
2022-12-03T02:47:50.905Z,101799.93
2022-12-03T02:50:30.521Z,101799.68
2022-12-03T02:53:06.440Z,101800.80
2022-12-03T02:55:38.842Z,101799.58
2022-12-03T02:58:12.122Z,101800.95
2022-12-03T03:00:45.165Z,101794.14
2022-12-03T03:03:18.591Z,101796.63
2022-12-03T03:05:51.580Z,101797.36
2022-12-03T03:08:24.502Z,101800.52
2022-12-03T03:10:57.323Z,101803.92
2022-12-03T03:13:30.980Z,101804.66
2022-12-03T03:16:05.229Z,101801.64
2022-12-03T03:18:37.515Z,101804.54
2022-12-03T03:21:09.963Z,101800.29
2022-12-03T03:23:41.773Z,101797.14
2022-12-03T03:26:16.297Z,101796.31
2022-12-03T03:28:51.197Z,101797.33
2022-12-03T03:31:24.958Z,101794.45
2022-12-03T03:33:57.178Z,101797.14
2022-12-03T03:36:29.054Z,101796.39
2022-12-03T03:39:00.915Z,101795.70
2022-12-03T03:41:33.910Z,101794.81
2022-12-03T03:44:07.624Z,101792.11
2022-12-03T03:46:40.837Z,101790.72
2022-12-03T03:49:13.589Z,101794.97
2022-12-03T03:51:46.061Z,101789.52
2022-12-03T03:54:18.762Z,101785.17
2022-12-03T03:56:50.918Z,101785.02
2022-12-03T03:59:22.811Z,101781.52
2022-12-03T04:01:54.753Z,101783.71
2022-12-03T04:04:28.950Z,101783.77
2022-12-03T04:07:01.138Z,101779.33
2022-12-03T04:09:33.001Z,101772.89
2022-12-03T04:12:22.354Z,101773.55
2022-12-03T04:14:54.836Z,101771.34
2022-12-03T04:17:27.269Z,101772.23
2022-12-03T04:19:59.071Z,101773.00
2022-12-03T04:22:42.790Z,101768.85
2022-12-03T04:25:31.467Z,101773.39
2022-12-03T04:28:22.958Z,101770.77
2022-12-03T04:30:54.805Z,101766.79
2022-12-03T04:33:44.562Z,101762.64
2022-12-03T04:36:16.422Z,101762.45
2022-12-03T04:38:48.436Z,101760.33
2022-12-03T04:41:20.250Z,101759.34
2022-12-03T04:44:09.295Z,101763.44
2022-12-03T04:46:41.242Z,101761.02
2022-12-03T04:49:13.185Z,101759.08
2022-12-03T04:51:45.016Z,101758.80
2022-12-03T04:54:16.940Z,101757.10
2022-12-03T04:56:48.787Z,101755.47
2022-12-03T04:59:20.968Z,101755.28
2022-12-03T05:01:52.906Z,101752.42
2022-12-03T05:04:24.903Z,101750.83
2022-12-03T05:06:57.245Z,101749.73
2022-12-03T05:09:29.152Z,101742.00
2022-12-03T05:12:00.945Z,101740.59
2022-12-03T05:14:32.815Z,101738.35
2022-12-03T05:17:04.751Z,101740.61
2022-12-03T05:19:54.724Z,101733.81
2022-12-03T05:22:26.503Z,101733.58
2022-12-03T05:24:58.377Z,101735.48
2022-12-03T05:27:32.883Z,101732.67
2022-12-03T05:30:04.899Z,101731.64
2022-12-03T05:32:36.758Z,101729.90
2022-12-03T05:35:12.520Z,101728.11
2022-12-03T05:37:45.004Z,101729.89
2022-12-03T05:40:25.297Z,101728.02
2022-12-03T05:42:58.171Z,101730.56
2022-12-03T05:45:31.811Z,101723.90
2022-12-03T05:48:04.552Z,101728.68
2022-12-03T05:50:38.990Z,101726.27
2022-12-03T05:53:11.258Z,101723.27
2022-12-03T05:55:43.274Z,101723.88
2022-12-03T05:58:15.091Z,101718.57
2022-12-03T06:00:47.493Z,101720.32
2022-12-03T06:03:19.529Z,101721.03
2022-12-03T06:05:51.492Z,101716.19
2022-12-03T06:08:23.411Z,101722.23
2022-12-03T06:10:55.287Z,101726.34
2022-12-03T06:13:27.225Z,101717.99
2022-12-03T06:15:59.290Z,101718.96
2022-12-03T06:18:31.273Z,101715.81
2022-12-03T06:21:03.055Z,101720.64
2022-12-03T06:23:34.917Z,101722.61
2022-12-03T06:26:06.862Z,101720.76
2022-12-03T06:28:38.717Z,101724.03
2022-12-03T06:31:10.594Z,101720.31
2022-12-03T06:33:42.547Z,101724.98
2022-12-03T06:36:16.741Z,101721.92
2022-12-03T06:38:51.759Z,101722.05
2022-12-03T06:41:23.781Z,101724.05
2022-12-03T06:43:55.581Z,101723.42
2022-12-03T06:46:27.511Z,101724.62
2022-12-03T06:48:59.385Z,101727.66
2022-12-03T06:51:31.575Z,101725.17
2022-12-03T06:54:03.854Z,101728.90
2022-12-03T06:56:40.387Z,101722.61
2022-12-03T06:59:16.769Z,101720.11
2022-12-03T07:01:49.283Z,101720.92
2022-12-03T07:04:21.117Z,101718.20
2022-12-03T07:06:53.318Z,101719.91
2022-12-03T07:09:25.150Z,101719.70
2022-12-03T07:11:57.127Z,101718.67
2022-12-03T07:14:29.014Z,101716.36
2022-12-03T07:17:00.906Z,101716.99
2022-12-03T07:19:33.258Z,101714.98
2022-12-03T07:22:05.966Z,101711.11
2022-12-03T07:24:37.930Z,101710.42
2022-12-03T07:27:09.887Z,101709.90
2022-12-03T07:29:41.718Z,101707.91
2022-12-03T07:32:15.351Z,101712.59
2022-12-03T07:34:47.251Z,101710.42
2022-12-03T07:37:23.043Z,101710.83
2022-12-03T07:39:55.392Z,101713.59
2022-12-03T07:42:27.279Z,101707.34
2022-12-03T07:44:59.099Z,101707.67
2022-12-03T07:47:31.036Z,101706.29
2022-12-03T07:50:02.849Z,101705.11
2022-12-03T07:52:42.110Z,101709.14
2022-12-03T07:55:14.508Z,101707.52
2022-12-03T07:57:48.371Z,101704.91
2022-12-03T08:00:26.544Z,101707.98
2022-12-03T08:02:58.453Z,101702.95
2022-12-03T08:05:30.750Z,101697.85
2022-12-03T08:08:02.741Z,101698.30
2022-12-03T08:10:34.679Z,101693.94
2022-12-03T08:13:12.949Z,101696.64
2022-12-03T08:15:45.375Z,101696.65
2022-12-03T08:18:21.488Z,101694.33
2022-12-03T08:20:54.253Z,101698.88
2022-12-03T08:23:27.934Z,101696.58
2022-12-03T08:26:02.240Z,101690.27
2022-12-03T08:28:34.123Z,101689.11
2022-12-03T08:31:18.256Z,101696.69
2022-12-03T08:33:52.136Z,101700.77
2022-12-03T08:36:36.526Z,101696.77
2022-12-03T08:39:24.486Z,101699.50
2022-12-03T08:42:16.877Z,101698.15
2022-12-03T08:44:49.087Z,101698.95
2022-12-03T08:50:29.678Z,101699.71
2022-12-03T08:53:12.927Z,101702.18
2022-12-03T08:55:53.139Z,101700.21
2022-12-03T08:58:40.389Z,101697.66
2022-12-03T09:04:55.003Z,101688.97
2022-12-03T09:07:27.410Z,101685.86
2022-12-03T09:09:59.715Z,101685.84
2022-12-03T09:12:31.909Z,101684.08
2022-12-03T09:15:03.754Z,101686.31
2022-12-03T09:17:36.894Z,101687.48
2022-12-03T09:20:14.474Z,101685.65
2022-12-03T09:22:46.455Z,101678.44
2022-12-03T09:25:18.458Z,101673.66
2022-12-03T09:27:50.405Z,101674.30
2022-12-03T09:30:28.746Z,101677.23
2022-12-03T09:33:00.760Z,101674.30
2022-12-03T09:35:32.537Z,101670.48
2022-12-03T09:38:04.366Z,101668.51
2022-12-03T09:40:36.754Z,101666.88
2022-12-03T09:43:08.690Z,101665.82
2022-12-03T09:45:40.718Z,101665.67
2022-12-03T09:48:14.221Z,101665.23
2022-12-03T09:50:46.897Z,101666.98
2022-12-03T09:53:20.902Z,101665.12
2022-12-03T09:55:52.943Z,101665.71
2022-12-03T09:58:24.958Z,101666.52
2022-12-03T10:00:58.182Z,101670.05
2022-12-03T10:03:33.145Z,101662.35
2022-12-03T10:06:05.267Z,101660.16
2022-12-03T10:08:37.200Z,101656.34
2022-12-03T10:11:09.652Z,101659.67
2022-12-03T10:13:41.838Z,101658.83
2022-12-03T10:16:16.333Z,101658.44
2022-12-03T10:18:51.366Z,101653.36
2022-12-03T10:21:27.112Z,101645.34
2022-12-03T10:24:26.616Z,101647.75
2022-12-03T10:27:00.708Z,101637.30
2022-12-03T10:33:18.829Z,101638.36
2022-12-03T10:35:51.502Z,101636.48
2022-12-03T10:38:24.562Z,101632.69
2022-12-03T10:40:58.127Z,101631.45
2022-12-03T10:43:30.186Z,101630.23
2022-12-03T10:46:18.478Z,101625.48
2022-12-03T10:49:11.179Z,101621.26
2022-12-03T10:51:43.419Z,101625.75
2022-12-03T10:54:22.067Z,101625.06
2022-12-03T10:56:54.630Z,101617.20
2022-12-03T10:59:29.505Z,101615.39
2022-12-03T11:02:01.894Z,101610.09
2022-12-03T11:04:37.806Z,101608.80
2022-12-03T11:13:55.256Z,101608.19
2022-12-03T11:17:07.249Z,101608.05
2022-12-03T11:19:48.360Z,101611.25
2022-12-03T11:22:47.534Z,101613.02
2022-12-03T11:25:50.987Z,101614.22
2022-12-03T11:28:54.524Z,101610.63
2022-12-03T11:35:15.160Z,101606.45
2022-12-03T11:38:27.168Z,101599.31
2022-12-03T11:41:20.099Z,101599.17
2022-12-03T11:44:29.390Z,101591.02
2022-12-03T11:47:15.426Z,101592.69
2022-12-03T11:49:51.155Z,101588.73
2022-12-03T11:52:31.198Z,101589.77
2022-12-03T11:55:16.068Z,101585.32
2022-12-03T11:58:16.374Z,101592.45
2022-12-03T12:00:56.380Z,101592.64
2022-12-03T12:03:40.845Z,101595.08
2022-12-03T12:06:17.885Z,101592.26
2022-12-03T12:09:00.430Z,101596.60
2022-12-03T12:11:35.865Z,101594.07
2022-12-03T12:14:09.587Z,101594.15
2022-12-03T12:16:56.089Z,101591.41
2022-12-03T12:23:29.667Z,101585.52
2022-12-03T12:26:09.772Z,101579.00
2022-12-03T12:28:45.039Z,101578.57
2022-12-03T12:31:16.966Z,101572.43
2022-12-03T12:34:12.499Z,101573.02
2022-12-03T12:36:44.675Z,101568.77
2022-12-03T12:39:18.435Z,101568.11
2022-12-03T12:41:52.998Z,101567.07
2022-12-03T12:44:26.586Z,101562.38
2022-12-03T12:47:03.970Z,101564.19
2022-12-03T12:49:35.950Z,101564.14
2022-12-03T12:55:05.504Z,101564.24
2022-12-03T12:57:44.864Z,101566.36
2022-12-03T13:00:29.528Z,101562.70
2022-12-03T13:03:04.073Z,101561.23
2022-12-03T13:08:54.673Z,101553.52
2022-12-03T13:11:41.528Z,101554.88
2022-12-03T13:17:55.815Z,101552.39
2022-12-03T13:26:58.602Z,101542.59
2022-12-03T13:29:30.856Z,101545.10
2022-12-03T13:32:15.236Z,101539.29
2022-12-03T13:34:47.849Z,101536.98
2022-12-03T13:37:23.638Z,101538.06
2022-12-03T13:39:58.471Z,101537.59
2022-12-03T13:42:42.047Z,101533.74
2022-12-03T13:45:34.784Z,101534.02
2022-12-03T13:48:23.765Z,101529.10
2022-12-03T13:50:56.422Z,101528.02
2022-12-03T13:53:34.084Z,101531.98
2022-12-03T13:56:30.101Z,101532.54
2022-12-03T13:59:04.428Z,101527.70
2022-12-03T14:04:59.803Z,101529.15
2022-12-03T14:07:32.336Z,101532.52
2022-12-03T14:10:04.402Z,101533.67
2022-12-03T14:12:49.973Z,101533.76
2022-12-03T14:15:26.334Z,101530.00
2022-12-03T14:18:10.869Z,101532.00
2022-12-03T14:21:01.591Z,101528.15
2022-12-03T14:23:33.671Z,101528.91
2022-12-03T14:26:17.736Z,101530.41
2022-12-03T14:28:49.409Z,101531.48
2022-12-03T14:31:21.122Z,101529.70
2022-12-03T14:33:59.126Z,101527.63
2022-12-03T14:36:30.878Z,101534.41
2022-12-03T14:39:24.707Z,101529.06
2022-12-03T14:42:15.081Z,101529.34
2022-12-03T14:44:48.558Z,101528.92
2022-12-03T14:47:31.965Z,101532.16
2022-12-03T14:50:14.466Z,101538.70
2022-12-03T14:52:58.167Z,101539.06
2022-12-03T14:55:33.972Z,101540.70
2022-12-03T14:58:26.949Z,101546.23
2022-12-03T15:00:58.603Z,101543.59
2022-12-03T15:03:31.877Z,101542.90
2022-12-03T15:06:03.525Z,101542.99
2022-12-03T15:08:46.718Z,101543.52
2022-12-03T15:14:44.244Z,101540.77
2022-12-03T15:24:03.563Z,101537.73
2022-12-03T15:26:38.130Z,101536.30
2022-12-03T15:29:23.296Z,101535.18
2022-12-03T15:31:55.066Z,101535.33
2022-12-03T15:35:01.971Z,101535.30
2022-12-03T15:37:34.486Z,101532.67
2022-12-03T15:40:11.330Z,101529.69
2022-12-03T15:42:43.517Z,101529.81
2022-12-03T15:45:15.761Z,101528.58
2022-12-03T15:47:47.707Z,101527.70
2022-12-03T15:50:19.748Z,101533.67
2022-12-03T15:52:51.642Z,101528.32
2022-12-03T15:55:23.572Z,101527.17
2022-12-03T15:57:55.414Z,101530.46
2022-12-03T16:00:27.944Z,101528.76
2022-12-03T16:03:04.005Z,101533.68
2022-12-03T16:05:38.208Z,101529.25
2022-12-03T16:08:09.902Z,101530.52
2022-12-03T16:10:46.196Z,101532.75
2022-12-03T16:23:37.345Z,101532.16
2022-12-03T16:26:12.200Z,101531.98
2022-12-03T16:28:43.940Z,101538.19
2022-12-03T16:31:20.727Z,101534.69
2022-12-03T16:34:00.072Z,101536.54
2022-12-03T16:36:39.489Z,101538.33
2022-12-03T16:39:50.846Z,101537.52
2022-12-03T16:42:45.069Z,101535.91
2022-12-03T16:45:53.594Z,101537.84
2022-12-03T16:48:25.687Z,101542.76
2022-12-03T16:50:59.169Z,101538.16
2022-12-03T16:53:41.710Z,101530.66
2022-12-03T16:56:37.792Z,101530.60
2022-12-03T16:59:09.831Z,101525.65
2022-12-03T17:01:41.827Z,101527.17
2022-12-03T17:04:14.035Z,101522.76
2022-12-03T17:06:46.012Z,101525.48
2022-12-03T17:09:17.927Z,101524.54
2022-12-03T17:11:50.019Z,101523.04
2022-12-03T17:14:22.287Z,101524.33
2022-12-03T17:16:54.207Z,101529.52
2022-12-03T17:19:25.982Z,101533.36
2022-12-03T17:21:59.863Z,101537.26
2022-12-03T17:24:31.783Z,101533.59
2022-12-03T17:27:06.288Z,101528.24
2022-12-03T17:29:38.207Z,101522.99
2022-12-03T17:32:10.363Z,101519.57
2022-12-03T17:34:42.460Z,101519.79
2022-12-03T17:37:15.044Z,101525.06
2022-12-03T17:39:47.025Z,101529.84
2022-12-03T17:42:18.987Z,101525.96
2022-12-03T17:44:50.606Z,101522.41
2022-12-03T17:47:22.263Z,101523.39
2022-12-03T17:49:54.081Z,101525.23
2022-12-03T17:52:25.903Z,101531.48
2022-12-03T17:55:18.037Z,101525.11
2022-12-03T17:57:49.208Z,101529.98
2022-12-03T18:00:30.208Z,101531.29
2022-12-03T18:03:01.855Z,101532.06
2022-12-03T18:05:33.556Z,101532.96
2022-12-03T18:08:05.461Z,101531.74
2022-12-03T18:10:38.764Z,101527.83
2022-12-03T18:13:10.469Z,101527.17
2022-12-03T18:15:42.113Z,101519.59
2022-12-03T18:18:14.001Z,101519.51
2022-12-03T18:20:45.675Z,101520.95
2022-12-03T18:23:17.410Z,101516.19
2022-12-03T18:25:49.146Z,101513.63
2022-12-03T18:28:21.047Z,101511.88
2022-12-03T18:30:53.109Z,101514.57
2022-12-03T18:33:25.238Z,101510.52
2022-12-03T18:35:59.109Z,101504.80
2022-12-03T18:38:34.622Z,101504.27
2022-12-03T18:41:06.416Z,101499.34
2022-12-03T18:43:38.147Z,101496.15
2022-12-03T18:46:51.295Z,101493.55
2022-12-03T18:49:06.556Z,101496.63
2022-12-03T18:51:43.351Z,101492.02
2022-12-03T18:54:15.819Z,101491.48
2022-12-03T18:56:47.466Z,101496.64
2022-12-03T18:59:20.658Z,101495.27
2022-12-03T19:01:52.374Z,101492.20
2022-12-03T19:04:24.258Z,101497.77
2022-12-03T19:06:55.986Z,101503.14
2022-12-03T19:09:27.768Z,101502.73
2022-12-03T19:11:59.425Z,101501.14
2022-12-03T19:14:31.906Z,101500.97
2022-12-03T19:17:03.964Z,101496.98
2022-12-03T19:19:36.372Z,101496.45
2022-12-03T19:22:07.992Z,101502.02
2022-12-03T19:24:39.674Z,101504.76
2022-12-03T19:27:11.417Z,101506.27
2022-12-03T19:29:43.239Z,101501.88
2022-12-03T19:32:14.949Z,101500.05
2022-12-03T19:34:46.669Z,101506.65
2022-12-03T19:37:18.346Z,101508.08
2022-12-03T19:39:53.463Z,101511.60
2022-12-03T19:42:25.704Z,101507.19
2022-12-03T19:44:57.440Z,101511.73
2022-12-03T19:47:29.159Z,101515.32
2022-12-03T19:50:01.133Z,101514.38
2022-12-03T19:52:35.279Z,101504.96
2022-12-03T19:55:08.039Z,101501.55
2022-12-03T19:57:42.242Z,101500.23
2022-12-03T20:00:24.972Z,101498.39
2022-12-03T20:02:56.823Z,101501.23
2022-12-03T20:05:33.158Z,101509.38
2022-12-03T20:08:06.488Z,101514.19
2022-12-03T20:10:38.390Z,101512.58
2022-12-03T20:13:10.128Z,101508.02
2022-12-03T20:15:41.765Z,101509.54
2022-12-03T20:18:13.418Z,101502.34
2022-12-03T20:20:45.071Z,101505.73
2022-12-03T20:23:17.002Z,101501.67
2022-12-03T20:25:48.669Z,101501.61
2022-12-03T20:28:20.529Z,101499.87
2022-12-03T20:31:00.737Z,101495.41
2022-12-03T20:33:32.723Z,101492.91
2022-12-03T20:36:04.835Z,101497.34
2022-12-03T20:38:37.257Z,101499.86
2022-12-03T20:41:12.412Z,101497.52
2022-12-03T20:43:44.288Z,101493.30
2022-12-03T20:46:18.461Z,101499.31
2022-12-03T20:48:54.127Z,101497.38
2022-12-03T20:51:28.164Z,101499.42
2022-12-03T20:54:00.911Z,101496.71
2022-12-03T20:56:35.796Z,101491.54
2022-12-03T20:59:09.468Z,101492.77
2022-12-03T21:01:41.540Z,101488.51
2022-12-03T21:04:16.191Z,101485.22
2022-12-03T21:06:48.321Z,101484.95
2022-12-03T21:09:20.084Z,101483.59
2022-12-03T21:11:51.783Z,101487.55
2022-12-03T21:14:24.967Z,101487.14
2022-12-03T21:17:08.536Z,101485.83
2022-12-03T21:19:41.193Z,101481.27
2022-12-03T21:22:12.912Z,101479.49
2022-12-03T21:24:44.686Z,101477.42
2022-12-03T21:27:21.366Z,101476.68
2022-12-03T21:29:55.382Z,101475.34
2022-12-03T21:32:27.438Z,101477.52
2022-12-03T21:34:59.083Z,101475.02
2022-12-03T21:37:31.048Z,101481.27
2022-12-03T21:40:02.911Z,101477.43
2022-12-03T21:42:37.183Z,101475.95
2022-12-03T21:45:10.477Z,101476.05
2022-12-03T21:47:42.282Z,101475.36
2022-12-03T21:50:15.963Z,101475.48
2022-12-03T21:52:47.628Z,101476.08
2022-12-03T21:55:19.491Z,101474.55
2022-12-03T21:57:54.055Z,101471.90
2022-12-03T22:00:27.558Z,101468.64
2022-12-03T22:02:59.266Z,101464.80
2022-12-03T22:05:31.036Z,101464.82
2022-12-03T22:08:02.874Z,101460.66
2022-12-03T22:10:34.657Z,101459.61
2022-12-03T22:13:06.329Z,101463.45
2022-12-03T22:15:40.560Z,101465.26
2022-12-03T22:18:14.574Z,101465.85
2022-12-03T22:20:46.381Z,101462.58
2022-12-03T22:23:18.059Z,101465.94
2022-12-03T22:25:57.865Z,101462.48
2022-12-03T22:28:31.724Z,101461.17
2022-12-03T22:31:05.910Z,101460.61
2022-12-03T22:33:38.504Z,101463.64
2022-12-03T22:36:19.916Z,101460.66
2022-12-03T22:38:52.280Z,101461.59
2022-12-03T22:41:23.966Z,101454.25
2022-12-03T22:43:55.803Z,101451.69
2022-12-03T22:46:28.121Z,101445.64
2022-12-03T22:49:06.432Z,101442.36
2022-12-03T22:51:38.626Z,101443.18
2022-12-03T22:54:11.675Z,101439.45
2022-12-03T22:56:43.732Z,101428.19
2022-12-03T22:59:15.633Z,101428.63
2022-12-03T23:01:47.480Z,101428.05
2022-12-03T23:04:19.207Z,101428.27
2022-12-03T23:06:54.038Z,101436.64
2022-12-03T23:09:25.757Z,101439.63
2022-12-03T23:11:57.474Z,101430.39
2022-12-03T23:14:29.505Z,101430.17
2022-12-03T23:17:01.135Z,101422.92
2022-12-03T23:19:32.861Z,101423.81
2022-12-03T23:22:04.563Z,101422.61
2022-12-03T23:24:36.248Z,101413.52
2022-12-03T23:27:08.099Z,101409.21
2022-12-03T23:29:40.074Z,101400.55
2022-12-03T23:32:11.702Z,101404.63
2022-12-03T23:34:46.029Z,101402.48
2022-12-03T23:37:17.701Z,101405.05
2022-12-03T23:39:51.098Z,101403.67
2022-12-03T23:42:22.981Z,101404.08
2022-12-03T23:44:54.786Z,101400.18
2022-12-03T23:47:26.374Z,101393.87
2022-12-03T23:49:58.013Z,101394.16
2022-12-03T23:52:32.403Z,101393.20
2022-12-03T23:55:04.560Z,101398.20
2022-12-03T23:57:36.490Z,101397.61
